createdAt,value
2022-11-24T00:01:07.312Z,99188.69
2022-11-24T00:03:34.400Z,99186.59
2022-11-24T00:06:15.185Z,99191.19
2022-11-24T00:08:44.192Z,99191.78
2022-11-24T00:11:13.725Z,99195.97
2022-11-24T00:13:40.503Z,99201.25
2022-11-24T00:16:24.251Z,99199.72
2022-11-24T00:18:53.080Z,99206.25
2022-11-24T00:21:20.565Z,99200.81
2022-11-24T00:23:47.724Z,99203.34
2022-11-24T00:26:16.606Z,99209.44
2022-11-24T00:28:44.389Z,99214.75
2022-11-24T00:31:35.377Z,99221.41
2022-11-24T00:34:04.508Z,99218.38
2022-11-24T00:36:32.844Z,99218.94
2022-11-24T00:39:01.403Z,99222.56
2022-11-24T00:41:28.958Z,99228.66
2022-11-24T00:43:56.307Z,99228.66
2022-11-24T00:46:25.183Z,99227.84
2022-11-24T00:48:52.268Z,99223.38
2022-11-24T00:51:20.761Z,99226.72
2022-11-24T00:53:47.476Z,99223.25
2022-11-24T00:56:14.384Z,99225.03
2022-11-24T00:58:41.234Z,99232.16
2022-11-24T01:01:11.588Z,99231.31
2022-11-24T01:03:38.580Z,99235.63
2022-11-24T01:06:12.242Z,99244.53
2022-11-24T01:08:39.859Z,99241.88
2022-11-24T01:11:07.571Z,99254.13
2022-11-24T01:13:34.264Z,99247.47
2022-11-24T01:16:00.983Z,99256.34
2022-11-24T01:18:27.672Z,99256.50
2022-11-24T01:20:54.417Z,99264.28
2022-11-24T01:23:21.115Z,99265.13
2022-11-24T01:25:47.786Z,99267.78
2022-11-24T01:28:14.535Z,99260.81
2022-11-24T01:30:41.284Z,99263.44
2022-11-24T01:33:08.035Z,99273.06
2022-11-24T01:35:34.711Z,99274.72
2022-11-24T01:38:01.473Z,99279.19
2022-11-24T01:40:28.134Z,99286.13
2022-11-24T01:42:54.848Z,99286.97
2022-11-24T01:45:41.059Z,99287.63
2022-11-24T01:48:23.201Z,99288.22
2022-11-24T01:51:05.445Z,99288.34
2022-11-24T01:53:32.164Z,99303.38
2022-11-24T01:55:59.156Z,99313.13
2022-11-24T01:58:27.530Z,99316.59
2022-11-24T02:00:54.251Z,99314.06
2022-11-24T02:03:25.218Z,99312.16
2022-11-24T02:06:00.210Z,99309.88
2022-11-24T02:08:33.619Z,99306.16
2022-11-24T02:11:02.381Z,99311.19
2022-11-24T02:13:29.383Z,99318.16
2022-11-24T02:15:56.067Z,99309.38
2022-11-24T02:18:22.881Z,99308.56
2022-11-24T02:20:49.629Z,99311.03
2022-11-24T02:23:22.571Z,99310.91
2022-11-24T02:26:15.832Z,99305.91
2022-11-24T02:28:42.589Z,99314.50
2022-11-24T02:31:09.361Z,99300.34
2022-11-24T02:33:36.784Z,99296.72
2022-11-24T02:36:03.779Z,99293.13
2022-11-24T02:38:31.907Z,99299.25
2022-11-24T02:41:00.804Z,99292.13
2022-11-24T02:43:28.943Z,99303.53
2022-11-24T02:45:55.610Z,99304.53
2022-11-24T02:48:22.345Z,99292.97
2022-11-24T02:50:49.011Z,99298.13
2022-11-24T02:53:15.677Z,99299.78
2022-11-24T02:55:42.388Z,99298.13
2022-11-24T02:58:09.019Z,99294.91
2022-11-24T03:00:35.732Z,99289.63
2022-11-24T03:03:02.880Z,99291.31
2022-11-24T03:05:29.591Z,99291.31
2022-11-24T03:07:56.402Z,99290.47
2022-11-24T03:10:24.336Z,99292.25
2022-11-24T03:12:51.021Z,99301.19
2022-11-24T03:15:17.791Z,99297.69
2022-11-24T03:17:44.659Z,99303.94
2022-11-24T03:20:11.618Z,99303.81
2022-11-24T03:22:38.371Z,99311.03
2022-11-24T03:25:05.334Z,99307.84
2022-11-24T03:27:32.022Z,99307.53
2022-11-24T03:29:58.719Z,99303.47
2022-11-24T03:32:25.469Z,99305.53
2022-11-24T03:34:52.365Z,99310.09
2022-11-24T03:37:19.129Z,99316.25
2022-11-24T03:39:45.771Z,99309.28
2022-11-24T03:42:12.871Z,99316.81
2022-11-24T03:44:39.548Z,99312.97
2022-11-24T03:47:06.212Z,99310.31
2022-11-24T03:49:33.306Z,99316.00
2022-11-24T03:52:03.873Z,99327.41
2022-11-24T03:54:33.730Z,99334.88
2022-11-24T03:57:00.635Z,99339.84
2022-11-24T03:59:27.266Z,99342.63
2022-11-24T04:01:54.015Z,99342.88
2022-11-24T04:04:20.772Z,99353.69
2022-11-24T04:06:47.546Z,99341.31
2022-11-24T04:09:14.213Z,99347.59
2022-11-24T04:11:59.553Z,99352.88
2022-11-24T04:14:26.299Z,99355.78
2022-11-24T04:16:52.956Z,99361.06
2022-11-24T04:19:19.588Z,99359.97
2022-11-24T04:21:46.269Z,99366.19
2022-11-24T04:24:13.324Z,99367.19
2022-11-24T04:26:40.048Z,99372.91
2022-11-24T04:29:06.816Z,99372.66
2022-11-24T04:31:33.565Z,99376.00
2022-11-24T04:34:00.251Z,99380.91
2022-11-24T04:36:26.883Z,99380.66
2022-11-24T04:39:22.784Z,99382.47
2022-11-24T04:41:40.729Z,99379.69
2022-11-24T04:44:07.400Z,99389.88
2022-11-24T04:46:34.058Z,99384.34
2022-11-24T04:49:01.395Z,99378.78
2022-11-24T04:51:28.055Z,99384.91
2022-11-24T04:53:54.748Z,99386.56
2022-11-24T04:56:21.461Z,99392.56
2022-11-24T04:58:48.938Z,99399.41
2022-11-24T05:01:15.631Z,99399.41
2022-11-24T05:03:42.476Z,99409.03
2022-11-24T05:06:09.101Z,99408.88
2022-11-24T05:08:35.822Z,99409.72
2022-11-24T05:11:06.452Z,99422.09
2022-11-24T05:13:33.172Z,99422.81
2022-11-24T05:16:01.198Z,99420.88
2022-11-24T05:18:28.882Z,99423.53
2022-11-24T05:20:55.775Z,99413.78
2022-11-24T05:23:22.516Z,99416.31
2022-11-24T05:25:49.918Z,99423.25
2022-11-24T05:28:18.104Z,99422.44
2022-11-24T05:30:45.396Z,99414.50
2022-11-24T05:33:22.852Z,99422.28
2022-11-24T05:35:50.250Z,99423.97
2022-11-24T05:38:17.761Z,99414.22
2022-11-24T05:40:44.729Z,99428.28
2022-11-24T05:43:12.451Z,99424.81
2022-11-24T05:45:39.498Z,99422.88
2022-11-24T05:48:07.681Z,99430.81
2022-11-24T05:50:35.215Z,99436.81
2022-11-24T05:53:12.910Z,99434.16
2022-11-24T05:55:41.248Z,99438.59
2022-11-24T05:58:08.861Z,99440.28
2022-11-24T06:00:42.754Z,99443.78
2022-11-24T06:03:10.776Z,99440.28
2022-11-24T06:05:37.834Z,99443.78
2022-11-24T06:08:04.975Z,99449.06
2022-11-24T06:10:31.699Z,99449.06
2022-11-24T06:12:58.376Z,99460.34
2022-11-24T06:15:25.055Z,99456.00
2022-11-24T06:17:58.375Z,99457.81
2022-11-24T06:20:31.194Z,99460.34
2022-11-24T06:23:00.123Z,99457.81
2022-11-24T06:25:28.221Z,99456.00
2022-11-24T06:27:55.005Z,99458.66
2022-11-24T06:30:21.657Z,99458.66
2022-11-24T06:32:50.034Z,99454.22
2022-11-24T06:35:16.981Z,99458.66
2022-11-24T06:37:43.683Z,99456.00
2022-11-24T06:40:10.644Z,99463.00
2022-11-24T06:42:37.692Z,99465.66
2022-11-24T06:45:08.769Z,99465.66
2022-11-24T06:47:36.490Z,99470.09
2022-11-24T06:50:05.190Z,99470.94
2022-11-24T06:52:31.873Z,99478.03
2022-11-24T06:54:58.638Z,99475.41
2022-11-24T06:57:26.221Z,99464.81
2022-11-24T06:59:53.008Z,99475.41
2022-11-24T07:02:19.726Z,99472.59
2022-11-24T07:04:46.382Z,99480.53
2022-11-24T07:07:13.086Z,99482.22
2022-11-24T07:09:39.764Z,99489.19
2022-11-24T07:12:06.733Z,99490.84
2022-11-24T07:14:33.752Z,99488.22
2022-11-24T07:17:02.384Z,99488.91
2022-11-24T07:19:29.121Z,99479.31
2022-11-24T07:21:55.845Z,99496.16
2022-11-24T07:24:22.528Z,99491.72
2022-11-24T07:26:49.176Z,99499.50
2022-11-24T07:29:16.007Z,99501.06
2022-11-24T07:31:43.057Z,99503.69
2022-11-24T07:34:09.802Z,99508.72
2022-11-24T07:36:36.481Z,99515.81
2022-11-24T07:39:06.391Z,99518.47
2022-11-24T07:41:33.117Z,99533.41
2022-11-24T07:43:59.822Z,99529.78
2022-11-24T07:46:26.593Z,99529.69
2022-11-24T07:48:53.285Z,99537.63
2022-11-24T07:51:20.052Z,99542.78
2022-11-24T07:53:46.749Z,99538.31
2022-11-24T07:56:13.559Z,99543.59
2022-11-24T07:58:40.554Z,99544.47
2022-11-24T08:01:11.358Z,99539.16
2022-11-24T08:03:38.252Z,99546.00
2022-11-24T08:06:23.592Z,99536.25
2022-11-24T08:08:51.752Z,99543.38
2022-11-24T08:11:18.492Z,99552.84
2022-11-24T08:13:45.464Z,99551.41
2022-11-24T08:16:15.129Z,99550.31
2022-11-24T08:18:42.123Z,99547.56
2022-11-24T08:21:12.785Z,99555.50
2022-11-24T08:23:39.505Z,99560.78
2022-11-24T08:26:09.046Z,99549.09
2022-11-24T08:28:36.446Z,99555.50
2022-11-24T08:31:08.861Z,99568.84
2022-11-24T08:33:35.789Z,99576.53
2022-11-24T08:36:11.170Z,99577.75
2022-11-24T08:38:38.462Z,99589.63
2022-11-24T08:41:10.803Z,99582.53
2022-11-24T08:43:37.717Z,99582.41
2022-11-24T08:46:13.808Z,99591.44
2022-11-24T08:48:41.442Z,99584.91
2022-11-24T08:51:10.956Z,99584.78
2022-11-24T08:53:37.953Z,99586.34
2022-11-24T08:56:05.431Z,99588.00
2022-11-24T08:58:34.035Z,99587.06
2022-11-24T09:01:12.487Z,99589.00
2022-11-24T09:03:42.284Z,99602.69
2022-11-24T09:06:10.640Z,99599.06
2022-11-24T09:08:38.056Z,99612.16
2022-11-24T09:11:15.404Z,99611.56
2022-11-24T09:13:42.676Z,99616.47
2022-11-24T09:16:12.847Z,99620.81
2022-11-24T09:18:39.807Z,99627.78
2022-11-24T09:21:07.941Z,99626.81
2022-11-24T09:23:34.759Z,99633.78
2022-11-24T09:26:10.845Z,99632.38
2022-11-24T09:28:37.805Z,99647.28
2022-11-24T09:31:06.220Z,99650.78
2022-11-24T09:33:33.424Z,99657.63
2022-11-24T09:36:00.284Z,99656.53
2022-11-24T09:38:27.364Z,99655.44
2022-11-24T09:40:57.232Z,99650.84
2022-11-24T09:43:38.237Z,99646.38
2022-11-24T09:46:13.885Z,99663.44
2022-11-24T09:48:43.991Z,99655.81
2022-11-24T09:51:12.688Z,99666.00
2022-11-24T09:53:49.297Z,99670.47
2022-11-24T09:56:22.155Z,99675.31
2022-11-24T09:59:41.918Z,99666.84
2022-11-24T10:02:13.245Z,99670.03
2022-11-24T10:04:45.104Z,99670.09
2022-11-24T10:07:16.987Z,99677.97
2022-11-24T10:09:52.861Z,99684.25
2022-11-24T10:12:28.280Z,99688.19
2022-11-24T10:15:12.027Z,99690.56
2022-11-24T10:18:03.435Z,99684.56
2022-11-24T10:20:51.729Z,99683.16
2022-11-24T10:23:38.404Z,99687.66
2022-11-24T10:26:08.892Z,99695.59
2022-11-24T10:28:43.980Z,99695.59
2022-11-24T10:31:22.732Z,99698.13
2022-11-24T10:33:50.053Z,99690.91
2022-11-24T10:36:25.517Z,99691.00
2022-11-24T10:39:05.009Z,99680.81
2022-11-24T10:42:05.740Z,99686.25
2022-11-24T10:44:32.430Z,99685.84
2022-11-24T10:46:59.170Z,99683.91
2022-11-24T10:49:28.377Z,99690.19
2022-11-24T10:52:05.857Z,99682.28
2022-11-24T10:54:33.145Z,99680.94
2022-11-24T10:56:59.881Z,99677.22
2022-11-24T10:59:32.904Z,99688.91
2022-11-24T11:02:00.033Z,99672.22
2022-11-24T11:04:28.271Z,99670.38
2022-11-24T11:07:09.222Z,99672.41
2022-11-24T11:09:36.143Z,99667.75
2022-11-24T11:12:42.553Z,99670.16
2022-11-24T11:15:23.333Z,99673.25
2022-11-24T11:17:52.407Z,99673.88
2022-11-24T11:20:22.798Z,99672.63
2022-11-24T11:27:18.686Z,99675.88
2022-11-24T11:35:19.218Z,99689.84
2022-11-24T11:37:47.518Z,99697.63
2022-11-24T11:40:18.416Z,99701.13
2022-11-24T11:43:02.229Z,99701.84
2022-11-24T11:45:35.099Z,99707.41
2022-11-24T11:48:01.840Z,99709.66
2022-11-24T11:50:59.481Z,99705.91
2022-11-24T11:53:45.982Z,99713.25
2022-11-24T11:56:15.260Z,99709.28
2022-11-24T11:59:06.550Z,99703.97
2022-11-24T12:01:38.791Z,99704.53
2022-11-24T12:04:26.027Z,99709.56
2022-11-24T12:07:22.779Z,99719.47
2022-11-24T12:10:16.976Z,99722.44
2022-11-24T12:13:06.789Z,99713.66
2022-11-24T12:15:51.414Z,99716.84
2022-11-24T12:18:57.139Z,99711.75
2022-11-24T12:21:26.830Z,99726.69
2022-11-24T12:24:06.197Z,99727.25
2022-11-24T12:26:53.612Z,99727.91
2022-11-24T12:29:41.832Z,99725.97
2022-11-24T12:32:43.290Z,99732.69
2022-11-24T12:35:34.830Z,99741.22
2022-11-24T12:38:14.976Z,99741.22
2022-11-24T12:41:39.864Z,99743.75
2022-11-24T12:43:52.959Z,99733.69
2022-11-24T12:46:29.388Z,99744.56
2022-11-24T12:49:08.485Z,99742.03
2022-11-24T12:51:38.342Z,99740.09
2022-11-24T12:54:10.121Z,99744.47
2022-11-24T12:56:38.126Z,99740.69
2022-11-24T12:59:40.034Z,99745.81
2022-11-24T13:02:38.362Z,99741.22
2022-11-24T13:05:20.152Z,99735.91
2022-11-24T13:07:55.353Z,99752.41
2022-11-24T13:13:13.006Z,99743.19
2022-11-24T13:16:34.504Z,99748.34
2022-11-24T13:18:56.829Z,99746.50
2022-11-24T13:21:35.855Z,99744.41
2022-11-24T13:24:21.232Z,99758.38
2022-11-24T13:26:50.714Z,99755.72
2022-11-24T13:29:52.743Z,99755.69
2022-11-24T13:32:19.491Z,99749.72
2022-11-24T13:34:58.064Z,99751.38
2022-11-24T13:37:35.444Z,99759.34
2022-11-24T13:40:12.181Z,99759.88
2022-11-24T13:43:03.255Z,99757.50
2022-11-24T13:45:38.868Z,99766.13
2022-11-24T13:48:21.642Z,99755.78
2022-11-24T13:50:54.762Z,99768.28
2022-11-24T13:53:34.777Z,99763.63
2022-11-24T13:56:13.181Z,99766.66
2022-11-24T13:58:46.581Z,99771.97
2022-11-24T14:01:28.467Z,99769.81
2022-11-24T14:04:33.644Z,99772.03
2022-11-24T14:07:09.781Z,99776.00
2022-11-24T14:09:42.256Z,99776.00
2022-11-24T14:12:17.149Z,99773.47
2022-11-24T14:14:45.808Z,99767.88
2022-11-24T14:17:25.032Z,99769.00
2022-11-24T14:19:53.549Z,99765.78
2022-11-24T14:22:36.332Z,99764.88
2022-11-24T14:25:03.998Z,99766.22
2022-11-24T14:27:33.161Z,99767.44
2022-11-24T14:30:17.507Z,99766.81
2022-11-24T14:32:55.725Z,99772.38
2022-11-24T14:35:27.119Z,99775.75
2022-11-24T14:37:53.958Z,99782.13
2022-11-24T14:40:55.980Z,99783.72
2022-11-24T14:43:32.203Z,99781.28
2022-11-24T14:46:10.370Z,99785.44
2022-11-24T14:48:39.041Z,99779.72
2022-11-24T14:51:20.333Z,99784.84
2022-11-24T14:53:49.568Z,99779.53
2022-11-24T14:56:23.560Z,99785.66
2022-11-24T14:58:50.609Z,99793.75
2022-11-24T15:01:21.905Z,99791.22
2022-11-24T15:04:13.052Z,99785.28
2022-11-24T15:06:47.328Z,99796.44
2022-11-24T15:09:23.988Z,99795.28
2022-11-24T15:11:50.937Z,99802.25
2022-11-24T15:14:33.431Z,99804.00
2022-11-24T15:17:00.499Z,99800.81
2022-11-24T15:19:32.618Z,99807.81
2022-11-24T15:21:59.377Z,99805.16
2022-11-24T15:24:26.080Z,99811.19
2022-11-24T15:27:00.444Z,99813.38
2022-11-24T15:29:27.207Z,99814.66
2022-11-24T15:31:53.941Z,99812.03
2022-11-24T15:34:20.784Z,99815.75
2022-11-24T15:36:47.472Z,99817.69
2022-11-24T15:39:14.160Z,99812.50
2022-11-24T15:41:41.831Z,99827.81
2022-11-24T15:44:09.480Z,99830.72
2022-11-24T15:46:38.688Z,99823.97
2022-11-24T15:49:07.549Z,99825.22
2022-11-24T15:51:35.756Z,99827.97
2022-11-24T15:54:02.669Z,99833.28
2022-11-24T15:56:34.208Z,99845.94
2022-11-24T15:59:01.459Z,99843.03
2022-11-24T16:01:31.306Z,99853.47
2022-11-24T16:03:58.174Z,99843.03
2022-11-24T16:06:25.674Z,99848.31
2022-11-24T16:08:53.695Z,99853.63
2022-11-24T16:11:21.036Z,99856.28
2022-11-24T16:13:52.490Z,99859.03
2022-11-24T16:16:20.451Z,99863.38
2022-11-24T16:18:47.179Z,99868.91
2022-11-24T16:21:14.068Z,99861.31
2022-11-24T16:23:40.970Z,99867.47
2022-11-24T16:26:07.772Z,99871.78
2022-11-24T16:28:34.594Z,99865.56
2022-11-24T16:31:01.633Z,99867.22
2022-11-24T16:33:29.356Z,99863.59
2022-11-24T16:35:56.101Z,99865.56
2022-11-24T16:38:22.831Z,99860.25
2022-11-24T16:40:58.541Z,99870.22
2022-11-24T16:43:25.339Z,99870.13
2022-11-24T16:46:15.672Z,99871.69
2022-11-24T16:48:43.096Z,99871.22
2022-11-24T16:51:10.245Z,99869.66
2022-11-24T16:53:37.155Z,99863.75
2022-11-24T16:56:03.890Z,99870.13
2022-11-24T16:58:30.604Z,99861.25
2022-11-24T17:01:04.776Z,99862.78
2022-11-24T17:03:38.919Z,99864.34
2022-11-24T17:06:11.200Z,99864.72
2022-11-24T17:08:39.967Z,99867.16
2022-11-24T17:11:23.537Z,99865.94
2022-11-24T17:13:50.834Z,99872.06
2022-11-24T17:16:20.434Z,99874.81
2022-11-24T17:18:47.195Z,99874.00
2022-11-24T17:21:19.904Z,99879.78
2022-11-24T17:23:46.952Z,99875.91
2022-11-24T17:26:15.392Z,99876.72
2022-11-24T17:28:42.244Z,99882.50
2022-11-24T17:31:09.638Z,99878.91
2022-11-24T17:33:36.574Z,99881.88
2022-11-24T17:36:04.623Z,99874.81
2022-11-24T17:38:31.301Z,99875.03
2022-11-24T17:40:58.349Z,99876.25
2022-11-24T17:43:25.150Z,99879.16
2022-11-24T17:45:56.295Z,99877.09
2022-11-24T17:48:23.469Z,99890.44
2022-11-24T17:51:01.445Z,99880.91
2022-11-24T17:53:31.465Z,99882.25
2022-11-24T17:56:02.065Z,99870.34
2022-11-24T17:58:31.878Z,99888.91
2022-11-24T18:01:00.334Z,99876.72
2022-11-24T18:03:32.428Z,99882.84
2022-11-24T18:06:10.850Z,99890.97
2022-11-24T18:08:39.017Z,99894.34
2022-11-24T18:11:07.428Z,99893.03
2022-11-24T18:13:55.801Z,99892.19
2022-11-24T18:16:21.288Z,99895.28
2022-11-24T18:18:51.075Z,99897.31
2022-11-24T18:21:18.109Z,99888.78
2022-11-24T18:23:47.174Z,99902.84
2022-11-24T18:26:18.243Z,99896.09
2022-11-24T18:28:45.588Z,99903.19
2022-11-24T18:31:18.530Z,99905.72
2022-11-24T18:33:45.279Z,99899.94
2022-11-24T18:36:16.964Z,99896.81
2022-11-24T18:38:46.066Z,99891.16
2022-11-24T18:41:14.729Z,99892.03
2022-11-24T18:43:42.633Z,99893.78
2022-11-24T18:46:15.629Z,99894.03
2022-11-24T18:48:43.168Z,99896.91
2022-11-24T18:51:14.936Z,99900.97
2022-11-24T18:53:43.555Z,99893.50
2022-11-24T18:56:15.988Z,99903.16
2022-11-24T18:58:43.306Z,99896.72
2022-11-24T19:01:20.341Z,99898.00
2022-11-24T19:03:49.628Z,99896.81
2022-11-24T19:06:24.641Z,99892.22
2022-11-24T19:08:54.218Z,99886.22
2022-11-24T19:11:26.651Z,99894.22
2022-11-24T19:13:53.693Z,99886.44
2022-11-24T19:16:21.473Z,99894.06
2022-11-24T19:18:53.683Z,99889.53
2022-11-24T19:21:21.695Z,99892.50
2022-11-24T19:23:48.930Z,99887.09
2022-11-24T19:26:16.415Z,99888.06
2022-11-24T19:28:43.573Z,99887.34
2022-11-24T19:31:12.917Z,99886.69
2022-11-24T19:33:40.264Z,99891.38
2022-11-24T19:36:13.645Z,99891.19
2022-11-24T19:38:41.206Z,99886.56
2022-11-24T19:41:10.793Z,99888.88
2022-11-24T19:43:37.853Z,99890.88
2022-11-24T19:46:06.762Z,99890.97
2022-11-24T19:48:40.700Z,99888.09
2022-11-24T19:51:10.234Z,99894.66
2022-11-24T19:53:38.061Z,99890.44
2022-11-24T19:56:06.655Z,99897.13
2022-11-24T19:58:34.114Z,99901.56
2022-11-24T20:01:24.579Z,99890.81
2022-11-24T20:04:00.194Z,99899.09
2022-11-24T20:06:29.405Z,99893.03
2022-11-24T20:08:58.412Z,99891.47
2022-11-24T20:11:25.203Z,99903.69
2022-11-24T20:13:52.240Z,99899.59
2022-11-24T20:16:26.199Z,99911.94
2022-11-24T20:18:54.674Z,99903.84
2022-11-24T20:21:23.587Z,99904.78
2022-11-24T20:23:57.861Z,99900.03
2022-11-24T20:26:25.891Z,99898.75
2022-11-24T20:28:54.558Z,99899.31
2022-11-24T20:31:30.782Z,99895.44
2022-11-24T20:33:57.637Z,99906.50
2022-11-24T20:36:25.999Z,99904.72
2022-11-24T20:38:53.183Z,99907.66
2022-11-24T20:41:25.380Z,99914.06
2022-11-24T20:43:53.880Z,99909.03
2022-11-24T20:46:22.924Z,99901.31
2022-11-24T20:48:49.904Z,99908.91
2022-11-24T20:51:27.845Z,99906.00
2022-11-24T20:53:57.511Z,99904.72
2022-11-24T20:56:30.052Z,99905.47
2022-11-24T20:58:57.361Z,99905.56
2022-11-24T21:01:30.884Z,99907.03
2022-11-24T21:03:59.456Z,99905.84
2022-11-24T21:06:27.948Z,99901.56
2022-11-24T21:09:00.489Z,99902.69
2022-11-24T21:11:30.476Z,99909.56
2022-11-24T21:13:57.661Z,99908.41
2022-11-24T21:16:32.688Z,99904.59
2022-11-24T21:19:01.415Z,99899.16
2022-11-24T21:21:36.220Z,99901.34
2022-11-24T21:24:09.867Z,99904.50
2022-11-24T21:26:37.636Z,99910.94
2022-11-24T21:29:05.200Z,99907.91
2022-11-24T21:31:34.991Z,99904.72
2022-11-24T21:34:01.837Z,99901.78
2022-11-24T21:36:28.585Z,99898.38
2022-11-24T21:38:57.077Z,99903.53
2022-11-24T21:41:25.810Z,99906.31
2022-11-24T21:43:55.536Z,99903.34
2022-11-24T21:46:22.403Z,99905.75
2022-11-24T21:48:49.312Z,99901.97
2022-11-24T21:51:18.004Z,99902.47
2022-11-24T21:53:45.282Z,99903.97
2022-11-24T21:56:14.106Z,99901.41
2022-11-24T21:58:45.796Z,99913.69
2022-11-24T22:01:13.070Z,99910.75
2022-11-24T22:03:39.860Z,99907.66
2022-11-24T22:06:06.992Z,99904.59
2022-11-24T22:08:33.962Z,99903.47
2022-11-24T22:11:04.518Z,99903.69
2022-11-24T22:13:31.334Z,99913.78
2022-11-24T22:16:03.878Z,99912.88
2022-11-24T22:18:33.027Z,99917.16
2022-11-24T22:21:00.314Z,99916.72
2022-11-24T22:23:27.124Z,99917.78
2022-11-24T22:25:53.777Z,99915.38
2022-11-24T22:28:20.509Z,99916.22
2022-11-24T22:30:47.176Z,99920.66
2022-11-24T22:33:13.882Z,99926.66
2022-11-24T22:35:40.597Z,99930.88
2022-11-24T22:38:07.329Z,99925.59
2022-11-24T22:40:34.052Z,99926.97
2022-11-24T22:43:00.807Z,99926.88
2022-11-24T22:45:27.778Z,99925.31
2022-11-24T22:47:54.995Z,99932.25
2022-11-24T22:50:21.701Z,99933.28
2022-11-24T22:52:50.040Z,99926.53
2022-11-24T22:55:16.732Z,99928.34
2022-11-24T22:57:47.981Z,99915.81
2022-11-24T23:00:15.731Z,99911.47
2022-11-24T23:02:42.481Z,99919.06
2022-11-24T23:05:09.369Z,99922.00
2022-11-24T23:07:36.107Z,99911.25
2022-11-24T23:10:03.147Z,99916.66
2022-11-24T23:12:29.758Z,99922.00
2022-11-24T23:14:56.490Z,99913.47
2022-11-24T23:17:23.269Z,99921.56
2022-11-24T23:19:50.231Z,99931.25
2022-11-24T23:22:16.931Z,99924.28
2022-11-24T23:24:43.707Z,99930.97
2022-11-24T23:27:10.410Z,99928.53
2022-11-24T23:29:37.076Z,99920.28
2022-11-24T23:32:07.015Z,99931.03
2022-11-24T23:34:34.072Z,99929.84
2022-11-24T23:37:01.027Z,99931.97
2022-11-24T23:39:27.709Z,99937.88
2022-11-24T23:41:54.395Z,99930.28
2022-11-24T23:44:21.129Z,99932.25
2022-11-24T23:46:47.898Z,99934.25
2022-11-24T23:49:14.642Z,99930.56
2022-11-24T23:51:42.019Z,99926.78
2022-11-24T23:54:09.636Z,99925.38
2022-11-24T23:56:36.691Z,99916.94
2022-11-24T23:59:04.509Z,99917.91
